sensor_id;sensor_type;location;lat;lon;timestamp;P1;durP1;ratioP1;P2;durP2;ratioP2
67566;SDS011;54394;53.540;49.402;2022-08-24T00:01:04;14.98;;;6.10;;
67566;SDS011;54394;53.540;49.402;2022-08-24T00:03:31;15.00;;;6.22;;
67566;SDS011;54394;53.540;49.402;2022-08-24T00:34:25;12.93;;;7.78;;
67566;SDS011;54394;53.540;49.402;2022-08-24T00:36:52;14.30;;;7.87;;
67566;SDS011;54394;53.540;49.402;2022-08-24T00:39:18;11.50;;;7.95;;
67566;SDS011;54394;53.540;49.402;2022-08-24T00:41:46;21.87;;;8.30;;
67566;SDS011;54394;53.540;49.402;2022-08-24T00:44:13;25.50;;;10.05;;
67566;SDS011;54394;53.540;49.402;2022-08-24T00:46:49;26.37;;;9.98;;
67566;SDS011;54394;53.540;49.402;2022-08-24T00:49:28;22.62;;;9.75;;
67566;SDS011;54394;53.540;49.402;2022-08-24T00:52:11;20.25;;;9.85;;
67566;SDS011;54394;53.540;49.402;2022-08-24T00:54:39;19.48;;;8.30;;
67566;SDS011;54394;53.540;49.402;2022-08-24T00:57:08;14.98;;;8.18;;
67566;SDS011;54394;53.540;49.402;2022-08-24T00:59:36;15.52;;;8.15;;
67566;SDS011;54394;53.540;49.402;2022-08-24T01:02:06;14.63;;;7.80;;
67566;SDS011;54394;53.540;49.402;2022-08-24T01:04:41;15.88;;;8.55;;
67566;SDS011;54394;53.540;49.402;2022-08-24T01:07:11;18.00;;;7.57;;
67566;SDS011;54394;53.540;49.402;2022-08-24T01:09:37;15.20;;;7.32;;
67566;SDS011;54394;53.540;49.402;2022-08-24T01:12:03;8.82;;;6.55;;
67566;SDS011;54394;53.540;49.402;2022-08-24T01:14:29;12.57;;;7.68;;
67566;SDS011;54394;53.540;49.402;2022-08-24T01:16:55;12.35;;;7.53;;
67566;SDS011;54394;53.540;49.402;2022-08-24T01:19:44;17.62;;;7.87;;
67566;SDS011;54394;53.540;49.402;2022-08-24T01:22:25;15.93;;;7.87;;
67566;SDS011;54394;53.540;49.402;2022-08-24T01:24:54;9.23;;;6.95;;
67566;SDS011;54394;53.540;49.402;2022-08-24T01:27:20;12.73;;;7.60;;
67566;SDS011;54394;53.540;49.402;2022-08-24T01:29:47;18.10;;;7.43;;
67566;SDS011;54394;53.540;49.402;2022-08-24T01:32:13;13.50;;;7.20;;
67566;SDS011;54394;53.540;49.402;2022-08-24T01:34:39;10.18;;;6.82;;
67566;SDS011;54394;53.540;49.402;2022-08-24T01:37:06;21.08;;;7.55;;
67566;SDS011;54394;53.540;49.402;2022-08-24T01:39:36;9.20;;;6.90;;
67566;SDS011;54394;53.540;49.402;2022-08-24T01:42:04;15.70;;;7.47;;
67566;SDS011;54394;53.540;49.402;2022-08-24T01:44:31;13.52;;;7.70;;
67566;SDS011;54394;53.540;49.402;2022-08-24T01:47:02;9.75;;;7.18;;
67566;SDS011;54394;53.540;49.402;2022-08-24T01:49:30;12.13;;;6.50;;
67566;SDS011;54394;53.540;49.402;2022-08-24T01:51:58;9.85;;;7.25;;
67566;SDS011;54394;53.540;49.402;2022-08-24T01:54:25;9.55;;;6.82;;
67566;SDS011;54394;53.540;49.402;2022-08-24T01:56:52;11.55;;;6.87;;
67566;SDS011;54394;53.540;49.402;2022-08-24T01:59:18;14.65;;;6.95;;
67566;SDS011;54394;53.540;49.402;2022-08-24T02:01:49;16.25;;;8.35;;
67566;SDS011;54394;53.540;49.402;2022-08-24T02:04:18;17.98;;;7.45;;
67566;SDS011;54394;53.540;49.402;2022-08-24T02:06:44;12.93;;;5.68;;
67566;SDS011;54394;53.540;49.402;2022-08-24T02:09:10;12.48;;;6.32;;
67566;SDS011;54394;53.540;49.402;2022-08-24T02:11:36;14.95;;;6.78;;
67566;SDS011;54394;53.540;49.402;2022-08-24T02:14:03;15.30;;;6.43;;
67566;SDS011;54394;53.540;49.402;2022-08-24T02:16:29;11.57;;;6.40;;
67566;SDS011;54394;53.540;49.402;2022-08-24T02:18:56;17.35;;;7.72;;
67566;SDS011;54394;53.540;49.402;2022-08-24T02:21:22;9.00;;;5.78;;
67566;SDS011;54394;53.540;49.402;2022-08-24T02:23:49;14.07;;;6.45;;
67566;SDS011;54394;53.540;49.402;2022-08-24T02:26:15;11.05;;;6.22;;
67566;SDS011;54394;53.540;49.402;2022-08-24T02:28:42;15.18;;;6.93;;
67566;SDS011;54394;53.540;49.402;2022-08-24T02:31:09;9.48;;;6.60;;
67566;SDS011;54394;53.540;49.402;2022-08-24T02:33:36;11.20;;;6.50;;
67566;SDS011;54394;53.540;49.402;2022-08-24T02:36:04;13.75;;;6.53;;
67566;SDS011;54394;53.540;49.402;2022-08-24T02:38:31;9.38;;;6.32;;
67566;SDS011;54394;53.540;49.402;2022-08-24T02:40:57;10.25;;;6.03;;
67566;SDS011;54394;53.540;49.402;2022-08-24T02:43:23;10.48;;;6.80;;
67566;SDS011;54394;53.540;49.402;2022-08-24T02:45:49;15.85;;;6.50;;
67566;SDS011;54394;53.540;49.402;2022-08-24T02:48:16;8.85;;;6.55;;
67566;SDS011;54394;53.540;49.402;2022-08-24T02:50:43;10.35;;;6.30;;
67566;SDS011;54394;53.540;49.402;2022-08-24T02:53:12;15.20;;;6.53;;
67566;SDS011;54394;53.540;49.402;2022-08-24T02:55:39;10.50;;;6.28;;
67566;SDS011;54394;53.540;49.402;2022-08-24T02:58:06;17.70;;;8.10;;
67566;SDS011;54394;53.540;49.402;2022-08-24T03:00:33;12.75;;;6.75;;
67566;SDS011;54394;53.540;49.402;2022-08-24T03:03:01;15.32;;;7.78;;
67566;SDS011;54394;53.540;49.402;2022-08-24T03:05:27;11.25;;;7.05;;
67566;SDS011;54394;53.540;49.402;2022-08-24T03:07:53;12.88;;;6.93;;
67566;SDS011;54394;53.540;49.402;2022-08-24T03:10:19;12.37;;;6.95;;
67566;SDS011;54394;53.540;49.402;2022-08-24T03:12:46;12.30;;;6.72;;
67566;SDS011;54394;53.540;49.402;2022-08-24T03:15:15;16.33;;;7.18;;
67566;SDS011;54394;53.540;49.402;2022-08-24T03:17:41;19.70;;;8.70;;
67566;SDS011;54394;53.540;49.402;2022-08-24T03:20:08;14.60;;;7.32;;
67566;SDS011;54394;53.540;49.402;2022-08-24T03:22:36;18.30;;;8.48;;
67566;SDS011;54394;53.540;49.402;2022-08-24T03:25:03;14.13;;;7.60;;
67566;SDS011;54394;53.540;49.402;2022-08-24T03:27:29;17.77;;;7.78;;
67566;SDS011;54394;53.540;49.402;2022-08-24T03:29:56;11.70;;;7.03;;
67566;SDS011;54394;53.540;49.402;2022-08-24T03:32:22;18.40;;;7.10;;
67566;SDS011;54394;53.540;49.402;2022-08-24T03:34:48;9.70;;;6.65;;
67566;SDS011;54394;53.540;49.402;2022-08-24T03:37:14;17.05;;;7.28;;
67566;SDS011;54394;53.540;49.402;2022-08-24T03:39:40;11.27;;;6.05;;
67566;SDS011;54394;53.540;49.402;2022-08-24T03:42:06;15.38;;;7.10;;
67566;SDS011;54394;53.540;49.402;2022-08-24T03:44:32;12.65;;;6.28;;
67566;SDS011;54394;53.540;49.402;2022-08-24T03:46:59;13.05;;;7.10;;
67566;SDS011;54394;53.540;49.402;2022-08-24T03:49:25;9.73;;;5.80;;
67566;SDS011;54394;53.540;49.402;2022-08-24T03:51:51;22.52;;;6.37;;
67566;SDS011;54394;53.540;49.402;2022-08-24T03:54:17;12.25;;;6.00;;
67566;SDS011;54394;53.540;49.402;2022-08-24T03:56:44;11.82;;;6.15;;
67566;SDS011;54394;53.540;49.402;2022-08-24T03:59:10;15.68;;;6.12;;
67566;SDS011;54394;53.540;49.402;2022-08-24T04:01:36;12.98;;;5.87;;
67566;SDS011;54394;53.540;49.402;2022-08-24T04:04:03;13.65;;;5.95;;
67566;SDS011;54394;53.540;49.402;2022-08-24T04:06:29;12.35;;;6.07;;
67566;SDS011;54394;53.540;49.402;2022-08-24T04:08:55;11.45;;;6.10;;
67566;SDS011;54394;53.540;49.402;2022-08-24T04:11:22;8.30;;;5.78;;
67566;SDS011;54394;53.540;49.402;2022-08-24T04:13:51;11.80;;;5.80;;
67566;SDS011;54394;53.540;49.402;2022-08-24T04:16:18;14.43;;;5.70;;
67566;SDS011;54394;53.540;49.402;2022-08-24T04:18:45;8.50;;;5.30;;
67566;SDS011;54394;53.540;49.402;2022-08-24T04:21:18;10.85;;;6.37;;
67566;SDS011;54394;53.540;49.402;2022-08-24T04:23:49;19.75;;;6.05;;
67566;SDS011;54394;53.540;49.402;2022-08-24T04:26:16;8.30;;;5.55;;
67566;SDS011;54394;53.540;49.402;2022-08-24T04:28:43;8.65;;;5.45;;
67566;SDS011;54394;53.540;49.402;2022-08-24T04:31:09;11.27;;;5.85;;
67566;SDS011;54394;53.540;49.402;2022-08-24T04:33:35;13.95;;;6.00;;
67566;SDS011;54394;53.540;49.402;2022-08-24T04:36:05;8.48;;;5.00;;
67566;SDS011;54394;53.540;49.402;2022-08-24T04:38:32;8.77;;;6.03;;
67566;SDS011;54394;53.540;49.402;2022-08-24T04:40:59;11.60;;;5.12;;
67566;SDS011;54394;53.540;49.402;2022-08-24T04:43:25;9.55;;;4.75;;
67566;SDS011;54394;53.540;49.402;2022-08-24T04:45:51;9.45;;;4.12;;
67566;SDS011;54394;53.540;49.402;2022-08-24T04:48:17;9.95;;;4.32;;
67566;SDS011;54394;53.540;49.402;2022-08-24T04:50:43;9.20;;;4.57;;
67566;SDS011;54394;53.540;49.402;2022-08-24T04:53:10;7.78;;;4.45;;
67566;SDS011;54394;53.540;49.402;2022-08-24T04:55:41;7.50;;;5.35;;
67566;SDS011;54394;53.540;49.402;2022-08-24T04:58:10;18.58;;;5.10;;
67566;SDS011;54394;53.540;49.402;2022-08-24T05:00:37;14.90;;;4.62;;
67566;SDS011;54394;53.540;49.402;2022-08-24T05:03:03;11.40;;;4.55;;
67566;SDS011;54394;53.540;49.402;2022-08-24T05:05:29;7.93;;;4.37;;
67566;SDS011;54394;53.540;49.402;2022-08-24T05:07:55;13.65;;;4.53;;
67566;SDS011;54394;53.540;49.402;2022-08-24T05:10:21;17.98;;;4.80;;
67566;SDS011;54394;53.540;49.402;2022-08-24T05:12:47;6.55;;;4.47;;
67566;SDS011;54394;53.540;49.402;2022-08-24T05:15:13;19.52;;;5.57;;
67566;SDS011;54394;53.540;49.402;2022-08-24T05:17:40;10.07;;;5.30;;
67566;SDS011;54394;53.540;49.402;2022-08-24T05:20:07;16.87;;;5.80;;
67566;SDS011;54394;53.540;49.402;2022-08-24T05:22:35;17.35;;;5.75;;
67566;SDS011;54394;53.540;49.402;2022-08-24T05:25:02;11.07;;;5.93;;
67566;SDS011;54394;53.540;49.402;2022-08-24T05:27:29;19.00;;;6.03;;
67566;SDS011;54394;53.540;49.402;2022-08-24T05:29:55;9.27;;;5.28;;
67566;SDS011;54394;53.540;49.402;2022-08-24T05:32:21;11.45;;;6.07;;
67566;SDS011;54394;53.540;49.402;2022-08-24T05:34:47;15.10;;;5.82;;
67566;SDS011;54394;53.540;49.402;2022-08-24T05:37:13;13.43;;;5.93;;
67566;SDS011;54394;53.540;49.402;2022-08-24T05:39:40;14.98;;;7.15;;
67566;SDS011;54394;53.540;49.402;2022-08-24T05:42:06;8.65;;;5.05;;
67566;SDS011;54394;53.540;49.402;2022-08-24T05:44:32;9.07;;;6.45;;
67566;SDS011;54394;53.540;49.402;2022-08-24T05:46:58;13.62;;;5.87;;
67566;SDS011;54394;53.540;49.402;2022-08-24T05:49:25;14.35;;;5.15;;
67566;SDS011;54394;53.540;49.402;2022-08-24T05:51:52;15.45;;;5.00;;
67566;SDS011;54394;53.540;49.402;2022-08-24T05:54:18;10.07;;;4.97;;
67566;SDS011;54394;53.540;49.402;2022-08-24T05:56:45;13.15;;;4.82;;
67566;SDS011;54394;53.540;49.402;2022-08-24T05:59:11;10.27;;;5.32;;
67566;SDS011;54394;53.540;49.402;2022-08-24T06:01:40;12.43;;;5.47;;
67566;SDS011;54394;53.540;49.402;2022-08-24T06:04:06;6.40;;;4.78;;
67566;SDS011;54394;53.540;49.402;2022-08-24T06:06:32;12.02;;;5.32;;
67566;SDS011;54394;53.540;49.402;2022-08-24T06:08:58;10.30;;;5.55;;
67566;SDS011;54394;53.540;49.402;2022-08-24T06:13:53;10.35;;;5.78;;
67566;SDS011;54394;53.540;49.402;2022-08-24T06:16:20;17.73;;;7.18;;
67566;SDS011;54394;53.540;49.402;2022-08-24T06:18:46;16.98;;;6.62;;
67566;SDS011;54394;53.540;49.402;2022-08-24T06:21:15;12.57;;;7.35;;
67566;SDS011;54394;53.540;49.402;2022-08-24T06:23:43;10.45;;;6.57;;
67566;SDS011;54394;53.540;49.402;2022-08-24T06:26:10;13.45;;;6.78;;
67566;SDS011;54394;53.540;49.402;2022-08-24T06:31:21;15.68;;;8.10;;
67566;SDS011;54394;53.540;49.402;2022-08-24T06:33:48;11.35;;;6.90;;
67566;SDS011;54394;53.540;49.402;2022-08-24T06:36:15;10.20;;;5.87;;
67566;SDS011;54394;53.540;49.402;2022-08-24T06:38:41;10.90;;;5.70;;
67566;SDS011;54394;53.540;49.402;2022-08-24T06:41:08;10.25;;;5.70;;
67566;SDS011;54394;53.540;49.402;2022-08-24T06:43:34;7.12;;;5.03;;
67566;SDS011;54394;53.540;49.402;2022-08-24T06:46:01;10.13;;;5.00;;
67566;SDS011;54394;53.540;49.402;2022-08-24T06:48:27;9.57;;;5.72;;
67566;SDS011;54394;53.540;49.402;2022-08-24T06:50:55;8.73;;;5.20;;
67566;SDS011;54394;53.540;49.402;2022-08-24T06:53:22;8.85;;;3.70;;
67566;SDS011;54394;53.540;49.402;2022-08-24T06:55:55;10.52;;;4.20;;
67566;SDS011;54394;53.540;49.402;2022-08-24T06:58:22;5.40;;;3.45;;
67566;SDS011;54394;53.540;49.402;2022-08-24T07:00:53;6.30;;;3.40;;
67566;SDS011;54394;53.540;49.402;2022-08-24T07:03:20;6.60;;;3.70;;
67566;SDS011;54394;53.540;49.402;2022-08-24T07:05:53;6.95;;;4.50;;
67566;SDS011;54394;53.540;49.402;2022-08-24T07:08:21;6.55;;;3.47;;
67566;SDS011;54394;53.540;49.402;2022-08-24T07:10:47;5.07;;;3.62;;
67566;SDS011;54394;53.540;49.402;2022-08-24T07:13:13;7.47;;;3.80;;
67566;SDS011;54394;53.540;49.402;2022-08-24T07:15:40;9.07;;;3.45;;
67566;SDS011;54394;53.540;49.402;2022-08-24T07:18:07;11.30;;;3.65;;
67566;SDS011;54394;53.540;49.402;2022-08-24T07:20:36;10.55;;;4.18;;
67566;SDS011;54394;53.540;49.402;2022-08-24T07:23:05;4.45;;;3.03;;
67566;SDS011;54394;53.540;49.402;2022-08-24T07:25:32;11.02;;;3.78;;
67566;SDS011;54394;53.540;49.402;2022-08-24T07:27:58;5.10;;;3.22;;
67566;SDS011;54394;53.540;49.402;2022-08-24T07:30:26;8.27;;;3.37;;
67566;SDS011;54394;53.540;49.402;2022-08-24T07:32:52;8.52;;;3.12;;
67566;SDS011;54394;53.540;49.402;2022-08-24T07:35:19;3.85;;;3.35;;
67566;SDS011;54394;53.540;49.402;2022-08-24T07:37:45;4.32;;;3.45;;
67566;SDS011;54394;53.540;49.402;2022-08-24T07:40:11;10.25;;;3.47;;
67566;SDS011;54394;53.540;49.402;2022-08-24T07:42:37;7.47;;;3.10;;
67566;SDS011;54394;53.540;49.402;2022-08-24T07:45:05;8.90;;;3.35;;
67566;SDS011;54394;53.540;49.402;2022-08-24T07:47:31;6.60;;;3.67;;
67566;SDS011;54394;53.540;49.402;2022-08-24T07:49:57;7.90;;;3.45;;
67566;SDS011;54394;53.540;49.402;2022-08-24T07:52:23;11.38;;;4.32;;
67566;SDS011;54394;53.540;49.402;2022-08-24T07:54:49;6.07;;;3.28;;
67566;SDS011;54394;53.540;49.402;2022-08-24T07:57:16;5.07;;;3.25;;
67566;SDS011;54394;53.540;49.402;2022-08-24T07:59:42;9.95;;;3.37;;
67566;SDS011;54394;53.540;49.402;2022-08-24T08:02:08;7.43;;;4.07;;
67566;SDS011;54394;53.540;49.402;2022-08-24T08:04:36;5.50;;;3.40;;
67566;SDS011;54394;53.540;49.402;2022-08-24T08:07:02;8.02;;;3.78;;
67566;SDS011;54394;53.540;49.402;2022-08-24T08:09:28;7.55;;;3.53;;
67566;SDS011;54394;53.540;49.402;2022-08-24T08:11:54;6.68;;;3.87;;
67566;SDS011;54394;53.540;49.402;2022-08-24T08:14:20;6.32;;;3.95;;
67566;SDS011;54394;53.540;49.402;2022-08-24T08:16:46;6.05;;;2.87;;
67566;SDS011;54394;53.540;49.402;2022-08-24T08:19:12;3.65;;;3.12;;
67566;SDS011;54394;53.540;49.402;2022-08-24T08:21:45;7.90;;;3.58;;
67566;SDS011;54394;53.540;49.402;2022-08-24T08:24:34;5.68;;;3.42;;
67566;SDS011;54394;53.540;49.402;2022-08-24T08:27:02;8.25;;;3.20;;
67566;SDS011;54394;53.540;49.402;2022-08-24T08:29:30;6.12;;;3.25;;
67566;SDS011;54394;53.540;49.402;2022-08-24T08:31:56;6.50;;;2.80;;
67566;SDS011;54394;53.540;49.402;2022-08-24T08:34:22;4.68;;;2.72;;
67566;SDS011;54394;53.540;49.402;2022-08-24T08:36:49;11.38;;;3.60;;
67566;SDS011;54394;53.540;49.402;2022-08-24T08:39:16;9.70;;;3.45;;
67566;SDS011;54394;53.540;49.402;2022-08-24T08:50:06;10.13;;;3.17;;
67566;SDS011;54394;53.540;49.402;2022-08-24T09:04:02;5.93;;;2.53;;
67566;SDS011;54394;53.540;49.402;2022-08-24T09:14:49;5.85;;;3.30;;
67566;SDS011;54394;53.540;49.402;2022-08-24T09:17:39;5.05;;;2.92;;
67566;SDS011;54394;53.540;49.402;2022-08-24T09:28:51;9.70;;;2.90;;
67566;SDS011;54394;53.540;49.402;2022-08-24T09:31:24;8.63;;;2.78;;
